createdAt,value
2023-03-12T00:02:02.227Z,3.88
2023-03-12T00:04:29.093Z,3.88
2023-03-12T00:06:55.927Z,6.10
2023-03-12T00:09:23.382Z,8.43
2023-03-12T00:11:50.179Z,3.53
2023-03-12T00:14:17.009Z,4.32
2023-03-12T00:16:43.755Z,5.72
2023-03-12T00:19:12.765Z,5.05
2023-03-12T00:21:39.824Z,13.55
2023-03-12T00:24:08.108Z,5.65
2023-03-12T00:26:35.006Z,3.97
2023-03-12T00:29:01.839Z,5.15
2023-03-12T00:31:31.827Z,5.93
2023-03-12T00:33:59.729Z,3.10
2023-03-12T00:36:28.999Z,2.70
2023-03-12T00:38:57.151Z,4.35
2023-03-12T00:41:24.928Z,5.47
2023-03-12T00:43:52.291Z,4.53
2023-03-12T00:46:19.771Z,4.75
2023-03-12T00:48:46.794Z,5.15
2023-03-12T00:51:13.900Z,6.97
2023-03-12T00:53:40.586Z,8.18
2023-03-12T00:56:07.797Z,4.53
2023-03-12T00:58:34.588Z,3.78
2023-03-12T01:01:01.285Z,4.10
2023-03-12T01:03:28.044Z,3.35
2023-03-12T01:05:54.690Z,5.95
2023-03-12T01:08:22.158Z,4.13
2023-03-12T01:10:49.070Z,5.40
2023-03-12T01:13:15.967Z,7.63
2023-03-12T01:15:42.702Z,5.88
2023-03-12T01:18:09.451Z,4.75
2023-03-12T01:20:36.244Z,3.78
2023-03-12T01:23:03.133Z,6.10
2023-03-12T01:25:29.797Z,6.18
2023-03-12T01:27:56.603Z,3.55
2023-03-12T01:30:23.739Z,6.25
2023-03-12T01:32:52.057Z,3.90
2023-03-12T01:35:18.886Z,7.88
2023-03-12T01:37:45.957Z,5.90
2023-03-12T01:40:17.597Z,6.70
2023-03-12T01:42:44.315Z,4.30
2023-03-12T01:45:48.829Z,6.43
2023-03-12T01:48:18.207Z,11.70
2023-03-12T01:50:45.267Z,5.07
2023-03-12T01:53:12.313Z,5.47
2023-03-12T01:55:39.196Z,4.70
2023-03-12T01:58:06.992Z,5.78
2023-03-12T02:00:33.752Z,3.03
2023-03-12T02:03:04.835Z,2.85
2023-03-12T02:05:54.774Z,4.70
2023-03-12T02:08:23.821Z,4.40
2023-03-12T02:10:50.773Z,5.47
2023-03-12T02:13:17.631Z,5.82
2023-03-12T02:15:44.422Z,6.38
2023-03-12T02:18:15.594Z,3.53
2023-03-12T02:21:01.234Z,6.20
2023-03-12T02:23:58.825Z,2.53
2023-03-12T02:26:26.533Z,6.43
2023-03-12T02:28:54.308Z,5.88
2023-03-12T02:31:24.448Z,4.00
2023-03-12T02:33:52.987Z,5.05
2023-03-12T02:36:20.456Z,3.90
2023-03-12T02:38:52.270Z,6.10
2023-03-12T02:41:28.370Z,6.47
2023-03-12T02:44:19.624Z,4.50
2023-03-12T02:46:49.160Z,4.63
2023-03-12T02:49:17.048Z,6.13
2023-03-12T02:51:44.752Z,4.75
2023-03-12T02:54:12.152Z,5.30
2023-03-12T02:56:39.214Z,9.35
2023-03-12T02:59:06.990Z,7.90
2023-03-12T03:01:33.991Z,4.03
2023-03-12T03:04:02.265Z,4.10
2023-03-12T03:06:29.471Z,5.70
2023-03-12T03:08:56.232Z,4.93
2023-03-12T03:11:24.684Z,7.20
2023-03-12T03:13:52.628Z,5.30
2023-03-12T03:16:19.545Z,7.72
2023-03-12T03:18:46.375Z,3.20
2023-03-12T03:21:16.556Z,6.30
2023-03-12T03:23:45.164Z,11.82
2023-03-12T03:26:12.366Z,7.88
2023-03-12T03:28:39.244Z,4.38
2023-03-12T03:31:06.738Z,8.18
2023-03-12T03:33:35.405Z,6.90
2023-03-12T03:36:03.109Z,5.80
2023-03-12T03:38:30.733Z,10.32
2023-03-12T03:40:57.818Z,5.97
2023-03-12T03:43:24.760Z,9.18
2023-03-12T03:45:58.810Z,8.30
2023-03-12T03:48:25.620Z,7.00
2023-03-12T03:50:52.671Z,7.00
2023-03-12T03:53:20.292Z,6.80
2023-03-12T03:55:47.070Z,8.38
2023-03-12T03:58:13.962Z,6.90
2023-03-12T04:00:40.655Z,6.95
2023-03-12T04:03:07.509Z,4.82
2023-03-12T04:05:34.348Z,9.35
2023-03-12T04:08:03.167Z,6.25
2023-03-12T04:10:30.406Z,4.72
2023-03-12T04:12:57.209Z,8.57
2023-03-12T04:15:24.067Z,6.68
2023-03-12T04:17:50.824Z,7.45
2023-03-12T04:20:17.726Z,6.60
2023-03-12T04:22:44.413Z,8.32
2023-03-12T04:25:11.420Z,6.85
2023-03-12T04:27:38.084Z,6.47
2023-03-12T04:30:05.435Z,7.45
2023-03-12T04:32:32.289Z,7.40
2023-03-12T04:34:58.995Z,10.32
2023-03-12T04:37:26.085Z,8.45
2023-03-12T04:39:52.773Z,9.18
2023-03-12T04:42:19.468Z,7.75
2023-03-12T04:44:46.126Z,4.70
2023-03-12T04:47:12.853Z,9.07
2023-03-12T04:49:40.081Z,4.63
2023-03-12T04:52:07.007Z,5.70
2023-03-12T04:54:33.887Z,7.30
2023-03-12T04:57:00.598Z,5.43
2023-03-12T04:59:27.404Z,8.65
2023-03-12T05:01:54.156Z,6.28
2023-03-12T05:04:20.890Z,5.85
2023-03-12T05:06:47.588Z,8.95
2023-03-12T05:09:14.270Z,7.88
2023-03-12T05:11:40.964Z,7.03
2023-03-12T05:14:07.620Z,11.43
2023-03-12T05:16:34.348Z,8.98
2023-03-12T05:19:02.344Z,5.85
2023-03-12T05:21:29.091Z,8.73
2023-03-12T05:23:56.201Z,9.98
2023-03-12T05:26:34.266Z,5.97
2023-03-12T05:29:01.893Z,7.00
2023-03-12T05:31:33.056Z,6.65
2023-03-12T05:33:59.904Z,6.43
2023-03-12T05:36:26.703Z,10.18
2023-03-12T05:38:53.386Z,7.82
2023-03-12T05:41:28.846Z,9.07
2023-03-12T05:43:56.837Z,8.70
2023-03-12T05:46:25.077Z,7.70
2023-03-12T05:48:51.824Z,7.75
2023-03-12T05:51:19.346Z,11.82
2023-03-12T05:53:46.115Z,10.95
2023-03-12T05:56:15.213Z,7.53
2023-03-12T05:58:42.036Z,14.05
2023-03-12T06:01:15.064Z,9.73
2023-03-12T06:03:43.073Z,9.43
2023-03-12T06:06:10.373Z,9.57
2023-03-12T06:08:37.220Z,6.43
2023-03-12T06:11:04.556Z,7.72
2023-03-12T06:13:31.591Z,9.20
2023-03-12T06:16:04.334Z,8.55
2023-03-12T06:18:32.797Z,10.68
2023-03-12T06:21:18.202Z,9.27
2023-03-12T06:23:45.605Z,11.50
2023-03-12T06:26:12.970Z,10.07
2023-03-12T06:28:39.765Z,6.50
2023-03-12T06:31:07.296Z,6.05
2023-03-12T06:33:34.830Z,8.82
2023-03-12T06:36:03.414Z,8.70
2023-03-12T06:38:30.237Z,6.97
2023-03-12T06:41:02.033Z,6.63
2023-03-12T06:43:30.373Z,7.80
2023-03-12T06:45:58.869Z,10.15
2023-03-12T06:48:27.390Z,10.30
2023-03-12T06:50:54.389Z,6.55
2023-03-12T06:53:21.779Z,6.95
2023-03-12T06:55:50.939Z,7.97
2023-03-12T06:58:18.223Z,5.07
2023-03-12T07:00:44.941Z,5.32
2023-03-12T07:03:11.666Z,5.65
2023-03-12T07:05:38.391Z,9.38
2023-03-12T07:08:05.614Z,3.85
2023-03-12T07:10:32.368Z,5.85
2023-03-12T07:12:59.093Z,5.32
2023-03-12T07:15:25.814Z,4.47
2023-03-12T07:17:52.519Z,3.53
2023-03-12T07:20:19.346Z,4.43
2023-03-12T07:22:46.240Z,4.45
2023-03-12T07:25:13.142Z,5.20
2023-03-12T07:27:39.830Z,2.85
2023-03-12T07:30:07.277Z,4.60
2023-03-12T07:32:35.355Z,2.60
2023-03-12T07:35:02.775Z,2.63
2023-03-12T07:37:29.494Z,2.55
2023-03-12T07:39:56.332Z,2.58
2023-03-12T07:42:23.391Z,2.35
2023-03-12T07:44:50.606Z,2.35
2023-03-12T07:47:23.981Z,3.28
2023-03-12T07:49:51.532Z,3.60
2023-03-12T07:52:20.160Z,2.25
2023-03-12T07:54:47.026Z,3.17
2023-03-12T07:57:13.874Z,3.92
2023-03-12T07:59:40.600Z,3.70
2023-03-12T08:02:09.285Z,7.80
2023-03-12T08:04:36.126Z,4.70
2023-03-12T08:07:03.034Z,6.22
2023-03-12T08:09:29.748Z,3.97
2023-03-12T08:11:56.452Z,4.88
2023-03-12T08:14:23.276Z,5.78
2023-03-12T08:16:50.158Z,2.05
2023-03-12T08:19:16.959Z,2.70
2023-03-12T08:21:44.061Z,2.00
2023-03-12T08:24:10.802Z,3.17
2023-03-12T08:26:37.483Z,4.53
2023-03-12T08:29:04.195Z,5.90
2023-03-12T08:31:30.947Z,8.63
2023-03-12T08:33:57.688Z,4.50
2023-03-12T08:36:24.444Z,3.75
2023-03-12T08:38:51.120Z,2.30
2023-03-12T08:41:17.938Z,2.78
2023-03-12T08:43:44.637Z,1.85
2023-03-12T08:46:12.506Z,3.42
2023-03-12T08:48:39.654Z,1.00
2023-03-12T08:51:07.496Z,0.50
2023-03-12T08:53:35.789Z,2.70
2023-03-12T08:56:03.812Z,0.52
2023-03-12T08:58:30.968Z,1.35
2023-03-12T09:00:58.121Z,0.88
2023-03-12T09:03:25.980Z,0.50
2023-03-12T09:06:07.034Z,2.05
2023-03-12T09:08:34.118Z,1.83
2023-03-12T09:11:02.031Z,0.50
2023-03-12T09:13:45.332Z,0.50
2023-03-12T09:16:15.848Z,0.70
2023-03-12T09:18:42.593Z,0.40
2023-03-12T09:21:09.333Z,1.00
2023-03-12T09:23:36.052Z,2.53
2023-03-12T09:26:03.585Z,0.40
2023-03-12T09:28:30.296Z,3.35
2023-03-12T09:30:57.091Z,1.48
2023-03-12T09:33:23.751Z,0.40
2023-03-12T09:35:57.620Z,0.57
2023-03-12T09:38:24.788Z,1.17
2023-03-12T09:40:51.740Z,2.28
2023-03-12T09:43:32.310Z,1.05
2023-03-12T09:45:59.167Z,2.90
2023-03-12T09:48:36.475Z,1.00
2023-03-12T09:51:06.733Z,1.75
2023-03-12T09:53:34.971Z,2.30
2023-03-12T09:56:09.170Z,1.35
2023-03-12T09:58:38.155Z,2.92
2023-03-12T10:01:32.651Z,1.70
2023-03-12T10:04:18.381Z,4.70
2023-03-12T10:07:09.923Z,3.72
2023-03-12T10:09:57.430Z,6.25
2023-03-12T10:12:53.509Z,5.53
2023-03-12T10:15:44.482Z,4.88
2023-03-12T10:18:24.221Z,6.55
2023-03-12T10:20:56.370Z,5.85
2023-03-12T10:23:33.417Z,8.38
2023-03-12T10:26:13.276Z,10.98
2023-03-12T10:28:46.599Z,11.93
2023-03-12T10:31:19.528Z,17.60
2023-03-12T10:33:56.483Z,12.65
2023-03-12T10:36:36.958Z,9.35
2023-03-12T10:39:05.440Z,10.32
2023-03-12T10:41:34.868Z,16.88
2023-03-12T10:44:06.442Z,9.75
2023-03-12T10:47:12.250Z,8.80
2023-03-12T10:52:07.393Z,12.20
2023-03-12T10:54:40.626Z,9.38
2023-03-12T10:57:08.328Z,10.38
2023-03-12T10:59:43.092Z,15.52
2023-03-12T11:04:52.538Z,10.13
2023-03-12T11:07:31.683Z,10.18
2023-03-12T11:10:07.259Z,13.68
2023-03-12T11:12:36.222Z,9.57
2023-03-12T11:15:25.552Z,16.23
2023-03-12T11:17:52.575Z,14.07
2023-03-12T11:20:29.856Z,13.10
2023-03-12T11:22:56.812Z,9.10
2023-03-12T11:25:28.943Z,16.08
2023-03-12T11:27:58.033Z,15.65
2023-03-12T11:30:32.478Z,13.10
2023-03-12T11:33:02.103Z,19.30
2023-03-12T11:35:46.940Z,21.85
2023-03-12T11:38:19.374Z,20.58
2023-03-12T11:40:48.875Z,22.17
2023-03-12T11:43:43.281Z,12.70
2023-03-12T11:46:33.775Z,11.55
2023-03-12T11:49:14.660Z,13.68
2023-03-12T11:52:03.554Z,12.38
2023-03-12T11:54:45.522Z,12.20
2023-03-12T11:57:12.168Z,6.93
2023-03-12T11:59:57.332Z,10.52
2023-03-12T12:02:53.828Z,12.32
2023-03-12T12:05:37.475Z,10.05
2023-03-12T12:08:29.993Z,12.32
2023-03-12T12:11:05.304Z,10.57
2023-03-12T12:14:11.733Z,11.48
2023-03-12T12:16:50.264Z,7.93
2023-03-12T12:19:28.942Z,11.63
2023-03-12T12:22:02.735Z,6.00
2023-03-12T12:24:55.225Z,13.50
2023-03-12T12:27:26.123Z,9.05
2023-03-12T12:30:17.567Z,10.48
2023-03-12T12:32:58.361Z,12.20
2023-03-12T12:35:27.480Z,9.85
2023-03-12T12:38:09.090Z,7.55
2023-03-12T12:40:39.059Z,8.52
2023-03-12T12:43:28.200Z,8.13
2023-03-12T12:45:58.167Z,9.15
2023-03-12T12:48:41.327Z,7.75
2023-03-12T12:51:09.130Z,14.70
2023-03-12T12:54:19.071Z,12.18
2023-03-12T12:57:05.548Z,13.85
2023-03-12T13:00:06.276Z,9.38
2023-03-12T13:02:34.044Z,16.80
2023-03-12T13:05:01.417Z,11.95
2023-03-12T13:07:29.424Z,18.58
2023-03-12T13:09:59.769Z,15.18
2023-03-12T13:12:38.536Z,16.55
2023-03-12T13:15:28.101Z,13.43
2023-03-12T13:17:54.813Z,10.88
2023-03-12T13:20:24.705Z,14.65
2023-03-12T13:23:18.143Z,12.75
2023-03-12T13:25:55.342Z,17.63
2023-03-12T13:28:30.294Z,17.80
2023-03-12T13:30:58.965Z,10.18
2023-03-12T13:33:45.180Z,14.57
2023-03-12T13:36:23.281Z,15.25
2023-03-12T13:39:00.760Z,13.30
2023-03-12T13:41:41.069Z,10.38
2023-03-12T13:44:22.958Z,7.55
2023-03-12T13:47:01.650Z,9.30
2023-03-12T13:49:36.080Z,13.77
2023-03-12T13:52:25.562Z,10.82
2023-03-12T13:55:22.294Z,13.00
2023-03-12T13:57:57.061Z,13.77
2023-03-12T14:03:16.687Z,16.88
2023-03-12T14:05:51.688Z,11.63
2023-03-12T14:08:28.439Z,13.77
2023-03-12T14:11:22.382Z,15.38
2023-03-12T14:14:26.559Z,21.17
2023-03-12T14:16:56.365Z,12.07
2023-03-12T14:19:25.568Z,10.35
2023-03-12T14:21:53.285Z,13.52
2023-03-12T14:24:35.708Z,11.70
2023-03-12T14:27:04.406Z,10.27
2023-03-12T14:29:45.757Z,10.35
2023-03-12T14:32:21.273Z,13.30
2023-03-12T14:34:53.640Z,8.02
2023-03-12T14:37:24.580Z,7.47
2023-03-12T14:39:58.934Z,8.43
2023-03-12T14:42:31.450Z,8.80
2023-03-12T14:45:07.416Z,13.07
2023-03-12T14:47:44.983Z,12.48
2023-03-12T14:50:20.477Z,10.70
2023-03-12T14:52:47.339Z,10.00
2023-03-12T14:55:22.661Z,13.27
2023-03-12T14:57:49.922Z,11.98
2023-03-12T15:00:24.019Z,8.50
2023-03-12T15:02:52.928Z,16.88
2023-03-12T15:05:20.500Z,7.38
2023-03-12T15:07:48.622Z,8.88
2023-03-12T15:10:25.619Z,9.70
2023-03-12T15:12:54.441Z,11.43
2023-03-12T15:15:39.463Z,7.32
2023-03-12T15:18:09.083Z,10.25
2023-03-12T15:20:36.305Z,10.32
2023-03-12T15:23:04.542Z,10.90
2023-03-12T15:25:33.852Z,10.82
2023-03-12T15:28:11.661Z,9.48
2023-03-12T15:30:39.671Z,10.68
2023-03-12T15:33:11.437Z,13.00
2023-03-12T15:35:57.112Z,8.15
2023-03-12T15:38:24.164Z,10.30
2023-03-12T15:40:53.900Z,6.95
2023-03-12T15:43:21.671Z,15.23
2023-03-12T15:45:48.693Z,10.73
2023-03-12T15:48:36.615Z,13.70
2023-03-12T15:51:03.682Z,10.30
2023-03-12T15:53:34.627Z,9.35
2023-03-12T15:56:11.975Z,10.15
2023-03-12T15:58:40.743Z,16.13
2023-03-12T16:01:21.167Z,14.48
2023-03-12T16:03:47.952Z,12.95
2023-03-12T16:06:17.598Z,17.52
2023-03-12T16:08:59.123Z,10.15
2023-03-12T16:11:31.044Z,17.02
2023-03-12T16:14:03.830Z,10.70
2023-03-12T16:16:30.639Z,10.80
2023-03-12T16:18:57.507Z,14.10
2023-03-12T16:21:24.497Z,12.82
2023-03-12T16:23:51.240Z,15.02
2023-03-12T16:26:18.021Z,12.98
2023-03-12T16:28:45.572Z,13.43
2023-03-12T16:31:14.349Z,8.48
2023-03-12T16:33:41.613Z,12.05
2023-03-12T16:36:16.063Z,10.32
2023-03-12T16:38:44.007Z,10.48
2023-03-12T16:41:16.365Z,10.82
2023-03-12T16:43:46.227Z,13.48
2023-03-12T16:46:18.899Z,14.88
2023-03-12T16:48:46.998Z,13.00
2023-03-12T16:51:15.829Z,17.70
2023-03-12T16:53:43.435Z,10.25
2023-03-12T16:56:17.154Z,18.05
2023-03-12T16:58:44.247Z,14.38
2023-03-12T17:01:19.870Z,16.98
2023-03-12T17:03:49.831Z,14.57
2023-03-12T17:06:19.533Z,14.60
2023-03-12T17:08:47.323Z,9.95
2023-03-12T17:11:22.613Z,19.52
2023-03-12T17:13:53.460Z,12.43
2023-03-12T17:16:20.313Z,12.63
2023-03-12T17:18:47.205Z,15.13
2023-03-12T17:21:15.943Z,12.60
2023-03-12T17:23:43.292Z,14.73
2023-03-12T17:26:10.210Z,11.63
2023-03-12T17:28:36.910Z,15.68
2023-03-12T17:31:04.139Z,11.75
2023-03-12T17:33:31.227Z,10.27
2023-03-12T17:36:03.985Z,12.68
2023-03-12T17:38:31.241Z,12.43
2023-03-12T17:40:58.975Z,15.10
2023-03-12T17:43:25.862Z,15.32
2023-03-12T17:45:52.814Z,14.98
2023-03-12T17:48:20.030Z,17.08
2023-03-12T17:50:46.716Z,12.45
2023-03-12T17:53:13.517Z,9.88
2023-03-12T17:55:40.478Z,20.35
2023-03-12T17:58:07.173Z,11.70
2023-03-12T18:00:34.271Z,12.00
2023-03-12T18:03:01.112Z,11.75
2023-03-12T18:05:27.961Z,10.15
2023-03-12T18:07:54.935Z,21.85
2023-03-12T18:10:21.680Z,11.25
2023-03-12T18:12:48.445Z,9.18
2023-03-12T18:15:16.705Z,15.60
2023-03-12T18:17:49.658Z,15.70
2023-03-12T18:20:25.822Z,13.82
2023-03-12T18:22:59.180Z,9.95
2023-03-12T18:25:25.910Z,12.68
2023-03-12T18:27:54.039Z,16.20
2023-03-12T18:30:21.509Z,18.83
2023-03-12T18:32:48.367Z,13.88
2023-03-12T18:35:15.143Z,13.55
2023-03-12T18:37:43.317Z,14.00
2023-03-12T18:40:10.685Z,14.40
2023-03-12T18:42:37.438Z,15.07
2023-03-12T18:45:04.985Z,12.93
2023-03-12T18:47:32.781Z,10.90
2023-03-12T18:49:59.487Z,15.02
2023-03-12T18:52:26.198Z,13.95
2023-03-12T18:54:52.855Z,18.45
2023-03-12T18:57:19.534Z,18.67
2023-03-12T18:59:47.103Z,9.77
2023-03-12T19:02:14.103Z,15.07
2023-03-12T19:04:40.882Z,14.10
2023-03-12T19:07:08.511Z,14.13
2023-03-12T19:09:35.213Z,17.35
2023-03-12T19:12:02.231Z,11.70
2023-03-12T19:14:29.596Z,10.95
2023-03-12T19:16:56.337Z,14.40
2023-03-12T19:19:23.154Z,14.38
2023-03-12T19:21:49.858Z,12.27
2023-03-12T19:24:16.549Z,13.25
2023-03-12T19:26:43.223Z,11.98
2023-03-12T19:29:12.270Z,8.82
2023-03-12T19:31:39.202Z,13.15
2023-03-12T19:34:06.015Z,14.88
2023-03-12T19:36:32.670Z,11.45
2023-03-12T19:38:59.816Z,11.02
2023-03-12T19:41:27.659Z,10.63
2023-03-12T19:43:54.426Z,8.98
2023-03-12T19:46:21.163Z,10.50
2023-03-12T19:48:48.087Z,13.45
2023-03-12T19:51:14.754Z,12.52
2023-03-12T19:53:41.636Z,16.00
2023-03-12T19:56:08.372Z,16.05
2023-03-12T19:58:35.100Z,10.55
2023-03-12T20:01:02.328Z,14.05
2023-03-12T20:03:30.218Z,17.52
2023-03-12T20:05:57.098Z,11.93
2023-03-12T20:08:27.657Z,10.10
2023-03-12T20:11:10.539Z,12.13
2023-03-12T20:13:40.125Z,14.43
2023-03-12T20:16:07.836Z,9.95
2023-03-12T20:18:34.556Z,11.80
2023-03-12T20:21:01.740Z,11.00
2023-03-12T20:23:29.079Z,11.82
2023-03-12T20:25:56.464Z,16.63
2023-03-12T20:28:23.196Z,11.65
2023-03-12T20:30:49.940Z,11.82
2023-03-12T20:33:16.954Z,12.80
2023-03-12T20:35:43.696Z,11.40
2023-03-12T20:38:10.589Z,6.75
2023-03-12T20:40:37.420Z,10.93
2023-03-12T20:43:05.131Z,11.90
2023-03-12T20:45:33.085Z,10.27
2023-03-12T20:48:00.164Z,10.32
2023-03-12T20:50:27.426Z,15.48
2023-03-12T20:52:54.150Z,8.90
2023-03-12T20:55:20.811Z,17.13
2023-03-12T20:57:47.597Z,8.73
2023-03-12T21:00:14.526Z,16.40
2023-03-12T21:02:41.349Z,8.88
2023-03-12T21:05:11.308Z,12.23
2023-03-12T21:07:38.134Z,15.82
2023-03-12T21:10:05.630Z,13.90
2023-03-12T21:12:32.614Z,10.93
2023-03-12T21:15:06.168Z,11.95
2023-03-12T21:17:38.157Z,13.93
2023-03-12T21:20:10.662Z,20.42
2023-03-12T21:22:37.459Z,15.90
2023-03-12T21:25:05.328Z,14.88
2023-03-12T21:27:44.478Z,15.23
2023-03-12T21:30:15.103Z,19.67
2023-03-12T21:32:42.232Z,14.07
2023-03-12T21:35:09.748Z,12.38
2023-03-12T21:37:37.075Z,15.98
2023-03-12T21:40:04.950Z,8.63
2023-03-12T21:42:33.115Z,12.38
2023-03-12T21:44:59.842Z,15.43
2023-03-12T21:47:26.551Z,9.57
2023-03-12T21:49:53.207Z,15.75
2023-03-12T21:52:20.239Z,13.70
2023-03-12T21:54:46.955Z,14.45
2023-03-12T21:57:13.957Z,14.38
2023-03-12T21:59:40.668Z,11.63
2023-03-12T22:02:07.419Z,11.15
2023-03-12T22:04:34.180Z,13.88
2023-03-12T22:07:00.923Z,14.98
2023-03-12T22:09:27.743Z,19.15
2023-03-12T22:11:54.426Z,10.43
2023-03-12T22:14:22.099Z,14.43
2023-03-12T22:16:48.950Z,15.07
2023-03-12T22:19:15.767Z,13.55
2023-03-12T22:21:42.969Z,18.60
2023-03-12T22:24:10.489Z,11.25
2023-03-12T22:26:37.178Z,11.23
2023-03-12T22:29:04.040Z,12.50
2023-03-12T22:31:30.919Z,16.13
2023-03-12T22:33:57.802Z,15.13
2023-03-12T22:36:24.759Z,13.65
2023-03-12T22:38:52.086Z,15.55
2023-03-12T22:41:24.162Z,12.10
2023-03-12T22:43:52.835Z,15.15
2023-03-12T22:46:21.143Z,13.27
2023-03-12T22:48:51.965Z,7.60
2023-03-12T22:51:19.024Z,8.38
2023-03-12T22:53:45.847Z,19.17
2023-03-12T22:56:13.596Z,18.42
2023-03-12T22:58:40.560Z,14.00
2023-03-12T23:01:15.949Z,7.20
2023-03-12T23:03:44.297Z,10.95
2023-03-12T23:06:13.943Z,12.80
2023-03-12T23:08:41.063Z,11.43
2023-03-12T23:11:08.563Z,12.30
2023-03-12T23:13:37.206Z,12.20
2023-03-12T23:16:09.454Z,13.15
2023-03-12T23:18:36.794Z,12.02
2023-03-12T23:21:11.556Z,11.93
2023-03-12T23:23:39.619Z,13.40
2023-03-12T23:26:06.770Z,10.60
2023-03-12T23:28:33.465Z,10.57
2023-03-12T23:31:08.145Z,18.85
2023-03-12T23:36:05.756Z,14.60
2023-03-12T23:38:35.152Z,11.63
2023-03-12T23:41:05.472Z,14.20
2023-03-12T23:43:32.796Z,8.80
2023-03-12T23:46:00.764Z,13.75
2023-03-12T23:48:28.805Z,5.90
2023-03-12T23:51:10.255Z,10.75
2023-03-12T23:53:37.881Z,12.20
2023-03-12T23:56:06.967Z,13.82
2023-03-12T23:58:34.083Z,13.15
